Time;durP1;ratioP1;P1;durP2;ratioP2;P2;SDS_P1;SDS_P2;PMS_P1;PMS_P2;Temp;Humidity;BMP_temperature;BMP_pressure;BME280_temperature;BME280_humidity;BME280_pressure;Samples;Min_cycle;Max_cycle;Signal;HPM_P1;HPM_P2
2023/12/24 00:01:34;;;;;;;100.78;57.28;;;;;;;;;;5028076;28;20057;-86
2023/12/24 00:04:00;;;;;;;126.88;70.95;;;;;;;;;;5009774;28;20346;-85
2023/12/24 00:06:25;;;;;;;100.53;56.22;;;;;;;;;;5027362;28;20116;-85
2023/12/24 00:08:50;;;;;;;131.88;67.68;;;;;;;;;;5027472;28;20025;-85
2023/12/24 00:11:16;;;;;;;102.05;58.92;;;;;;;;;;5007083;28;20033;-86
2023/12/24 00:13:41;;;;;;;96.00;57.00;;;;;;;;;;4990505;28;20018;-86
2023/12/24 00:16:06;;;;;;;126.68;69.53;;;;;;;;;;5010570;28;20025;-86
2023/12/24 00:18:32;;;;;;;118.80;58.92;;;;;;;;;;5009697;28;20398;-86
2023/12/24 00:20:57;;;;;;;132.48;69.70;;;;;;;;;;5010508;28;20056;-85
2023/12/24 00:23:22;;;;;;;70.90;42.67;;;;;;;;;;5005090;28;20030;-85
2023/12/24 00:25:47;;;;;;;146.98;67.40;;;;;;;;;;5013806;28;20025;-86
2023/12/24 00:28:13;;;;;;;138.32;66.18;;;;;;;;;;5027520;28;20079;-86
2023/12/24 00:30:39;;;;;;;325.48;128.90;;;;;;;;;;5009533;28;20049;-85
2023/12/24 00:33:04;;;;;;;144.75;81.25;;;;;;;;;;5010117;28;20436;-86
2023/12/24 00:35:31;;;;;;;103.68;59.92;;;;;;;;;;5010007;28;20132;-86
2023/12/24 00:37:57;;;;;;;214.65;109.70;;;;;;;;;;5018695;28;20033;-85
2023/12/24 00:40:22;;;;;;;196.50;96.28;;;;;;;;;;5009777;28;20080;-85
2023/12/24 00:42:47;;;;;;;135.40;73.43;;;;;;;;;;5026816;28;20037;-85
2023/12/24 00:45:13;;;;;;;288.83;114.13;;;;;;;;;;5026324;28;20034;-85
2023/12/24 00:47:40;;;;;;;154.30;75.82;;;;;;;;;;5027534;28;20395;-86
2023/12/24 00:50:06;;;;;;;218.13;96.40;;;;;;;;;;5027390;28;20100;-85
2023/12/24 00:52:32;;;;;;;234.85;112.85;;;;;;;;;;5026966;28;20252;-86
2023/12/24 00:54:57;;;;;;;220.48;95.18;;;;;;;;;;5009845;28;20253;-85
2023/12/24 00:57:22;;;;;;;145.50;69.30;;;;;;;;;;5015329;28;20029;-86
2023/12/24 00:59:47;;;;;;;114.53;57.90;;;;;;;;;;5027219;28;20427;-85
2023/12/24 01:02:13;;;;;;;222.88;94.60;;;;;;;;;;5011935;28;20120;-85
2023/12/24 01:04:38;;;;;;;80.70;44.08;;;;;;;;;;5024278;28;20107;-86
2023/12/24 01:07:03;;;;;;;100.43;48.33;;;;;;;;;;5021146;28;20021;-85
2023/12/24 01:09:29;;;;;;;220.70;91.88;;;;;;;;;;5013061;28;20041;-85
2023/12/24 01:11:54;;;;;;;93.88;48.85;;;;;;;;;;5013531;28;20037;-86
2023/12/24 01:14:19;;;;;;;85.65;49.17;;;;;;;;;;5030841;28;20017;-86
2023/12/24 01:16:45;;;;;;;160.55;69.18;;;;;;;;;;5013752;28;20514;-85
2023/12/24 01:19:10;;;;;;;80.30;43.22;;;;;;;;;;5030359;28;20467;-85
2023/12/24 01:21:35;;;;;;;84.85;42.72;;;;;;;;;;5013175;28;20026;-85
2023/12/24 01:24:01;;;;;;;114.32;54.83;;;;;;;;;;5013171;28;20118;-85
2023/12/24 01:26:26;;;;;;;84.40;41.55;;;;;;;;;;5013308;28;20132;-86
2023/12/24 01:28:52;;;;;;;145.35;62.22;;;;;;;;;;5030509;28;20475;-86
2023/12/24 01:31:17;;;;;;;59.78;33.03;;;;;;;;;;5030643;28;20032;-86
2023/12/24 01:33:42;;;;;;;249.57;80.78;;;;;;;;;;5030913;28;20030;-86
2023/12/24 01:36:08;;;;;;;174.20;62.13;;;;;;;;;;5013290;28;20054;-83
2023/12/24 01:38:33;;;;;;;61.22;34.22;;;;;;;;;;5018405;28;20044;-86
2023/12/24 01:40:59;;;;;;;93.00;53.08;;;;;;;;;;5030304;28;20045;-86
2023/12/24 01:43:25;;;;;;;87.65;48.05;;;;;;;;;;5030821;28;20033;-85
2023/12/24 01:45:51;;;;;;;71.78;40.08;;;;;;;;;;5012738;28;20091;-86
2023/12/24 01:48:17;;;;;;;53.65;30.00;;;;;;;;;;5030309;28;20033;-86
2023/12/24 01:50:43;;;;;;;53.15;29.15;;;;;;;;;;5013093;28;20120;-86
2023/12/24 01:53:09;;;;;;;53.58;30.35;;;;;;;;;;5030364;28;20032;-86
2023/12/24 01:55:34;;;;;;;72.88;36.60;;;;;;;;;;5030242;28;20022;-86
2023/12/24 01:58:01;;;;;;;333.23;158.18;;;;;;;;;;5030351;28;20021;-85
2023/12/24 02:00:26;;;;;;;105.88;56.00;;;;;;;;;;5012368;28;20026;-86
2023/12/24 02:02:54;;;;;;;73.38;37.63;;;;;;;;;;5030222;28;20045;-86
2023/12/24 02:05:19;;;;;;;82.13;43.10;;;;;;;;;;5027563;28;20030;-85
2023/12/24 02:07:44;;;;;;;72.85;40.63;;;;;;;;;;5012568;28;20387;-85
2023/12/24 02:10:10;;;;;;;64.72;38.35;;;;;;;;;;5017304;28;20499;-86
2023/12/24 02:12:35;;;;;;;59.67;34.95;;;;;;;;;;5011981;28;20028;-86
2023/12/24 02:15:01;;;;;;;57.33;34.22;;;;;;;;;;5022448;28;20028;-86
2023/12/24 02:17:27;;;;;;;53.20;29.92;;;;;;;;;;5030248;28;20696;-86
2023/12/24 02:19:53;;;;;;;164.68;92.25;;;;;;;;;;5029677;28;20033;-86
2023/12/24 02:22:18;;;;;;;83.82;47.80;;;;;;;;;;5029956;28;20403;-86
2023/12/24 02:24:43;;;;;;;69.55;38.03;;;;;;;;;;5019483;28;20029;-86
2023/12/24 02:27:35;;;;;;;48.75;29.52;;;;;;;;;;5029908;28;20399;-86
2023/12/24 02:30:10;;;;;;;40.45;21.15;;;;;;;;;;5026093;28;20060;-85
2023/12/24 02:32:37;;;;;;;40.40;24.42;;;;;;;;;;5006678;28;20034;-86
2023/12/24 02:35:03;;;;;;;38.58;22.88;;;;;;;;;;5019788;28;20021;-86
2023/12/24 02:37:29;;;;;;;34.58;21.08;;;;;;;;;;5012194;28;20048;-85
2023/12/24 02:39:55;;;;;;;37.13;21.85;;;;;;;;;;5017143;28;20140;-86
2023/12/24 02:42:21;;;;;;;30.02;19.75;;;;;;;;;;5030000;28;20029;-85
2023/12/24 02:44:46;;;;;;;22.88;14.40;;;;;;;;;;5023053;28;20036;-86
2023/12/24 02:47:11;;;;;;;20.05;11.32;;;;;;;;;;5029500;28;20053;-86
2023/12/24 02:49:37;;;;;;;19.55;12.35;;;;;;;;;;5029430;28;20106;-86
2023/12/24 02:52:02;;;;;;;17.27;11.32;;;;;;;;;;5011434;28;20083;-85
2023/12/24 02:54:27;;;;;;;10.93;7.07;;;;;;;;;;5029650;28;20521;-86
2023/12/24 02:56:53;;;;;;;11.27;7.55;;;;;;;;;;5029265;28;20618;-86
2023/12/24 02:59:18;;;;;;;19.17;12.38;;;;;;;;;;5011295;28;20029;-86
2023/12/24 03:01:44;;;;;;;13.35;8.90;;;;;;;;;;5028844;28;20110;-86
2023/12/24 03:04:09;;;;;;;25.10;15.52;;;;;;;;;;5027624;28;20036;-86
2023/12/24 03:06:34;;;;;;;30.02;18.30;;;;;;;;;;5011510;28;20030;-86
2023/12/24 03:09:00;;;;;;;25.63;15.88;;;;;;;;;;5010909;28;20029;-86
2023/12/24 03:11:25;;;;;;;23.48;14.02;;;;;;;;;;5024136;28;20164;-86
2023/12/24 03:13:50;;;;;;;19.77;12.23;;;;;;;;;;5029019;28;20021;-86
2023/12/24 03:16:17;;;;;;;21.38;13.05;;;;;;;;;;5023350;28;20369;-86
2023/12/24 03:18:42;;;;;;;21.65;13.55;;;;;;;;;;5028824;28;20025;-86
2023/12/24 03:21:07;;;;;;;19.40;12.10;;;;;;;;;;5016788;28;20041;-86
2023/12/24 03:23:33;;;;;;;20.45;13.20;;;;;;;;;;5010126;28;20026;-86
2023/12/24 03:25:58;;;;;;;16.98;10.88;;;;;;;;;;5018397;28;20116;-86
2023/12/24 03:28:23;;;;;;;15.93;9.70;;;;;;;;;;5028032;28;20029;-85
2023/12/24 03:30:48;;;;;;;22.83;14.38;;;;;;;;;;5025864;28;20521;-86
2023/12/24 03:33:14;;;;;;;20.45;12.52;;;;;;;;;;5029079;28;20017;-85
2023/12/24 03:35:39;;;;;;;24.77;15.15;;;;;;;;;;5028546;28;20069;-85
2023/12/24 03:38:04;;;;;;;28.08;16.67;;;;;;;;;;5010742;28;20479;-85
2023/12/24 03:40:30;;;;;;;29.38;16.83;;;;;;;;;;5028082;28;20120;-86
2023/12/24 03:42:55;;;;;;;29.73;17.98;;;;;;;;;;5028098;28;20021;-85
2023/12/24 03:45:20;;;;;;;24.60;15.32;;;;;;;;;;5010681;28;20025;-86
2023/12/24 03:47:46;;;;;;;23.58;13.45;;;;;;;;;;5028461;28;20028;-86
2023/12/24 03:50:11;;;;;;;21.90;12.98;;;;;;;;;;5009786;28;20025;-85
2023/12/24 03:52:36;;;;;;;23.20;14.82;;;;;;;;;;5010637;28;20100;-85
2023/12/24 03:55:02;;;;;;;21.52;13.55;;;;;;;;;;5028589;28;20108;-85
2023/12/24 03:57:27;;;;;;;22.20;13.85;;;;;;;;;;5027883;28;20426;-85
2023/12/24 03:59:52;;;;;;;25.02;15.90;;;;;;;;;;5028289;28;20490;-85
2023/12/24 04:02:18;;;;;;;21.40;13.20;;;;;;;;;;5020572;28;20033;-86
2023/12/24 04:04:47;;;;;;;20.63;12.45;;;;;;;;;;5010662;28;20116;-86
2023/12/24 04:07:14;;;;;;;19.02;13.10;;;;;;;;;;5027753;28;20483;-86
2023/12/24 04:09:40;;;;;;;21.10;13.80;;;;;;;;;;5009964;28;20030;-86
2023/12/24 04:12:06;;;;;;;22.08;12.93;;;;;;;;;;5018499;28;20029;-86
2023/12/24 04:14:31;;;;;;;21.73;13.02;;;;;;;;;;5026172;28;20104;-86
2023/12/24 04:16:56;;;;;;;19.38;11.68;;;;;;;;;;5027838;28;20484;-86
2023/12/24 04:19:22;;;;;;;19.02;11.65;;;;;;;;;;5027915;28;20018;-86
2023/12/24 04:21:47;;;;;;;16.27;10.35;;;;;;;;;;5013783;28;20347;-86
2023/12/24 04:24:12;;;;;;;19.63;12.45;;;;;;;;;;5027832;28;20021;-86
2023/12/24 04:26:38;;;;;;;18.65;12.23;;;;;;;;;;5006495;28;20028;-86
2023/12/24 04:29:03;;;;;;;30.20;17.67;;;;;;;;;;4990205;28;20052;-86
2023/12/24 04:31:28;;;;;;;27.75;16.60;;;;;;;;;;4994234;28;20596;-86
2023/12/24 04:33:53;;;;;;;23.92;14.23;;;;;;;;;;5026596;28;20048;-85
2023/12/24 04:36:22;;;;;;;22.98;15.15;;;;;;;;;;5026668;28;20100;-85
2023/12/24 04:38:47;;;;;;;24.60;14.67;;;;;;;;;;5024268;28;20025;-85
2023/12/24 04:41:16;;;;;;;29.80;17.23;;;;;;;;;;5009427;28;20037;-85
2023/12/24 04:43:42;;;;;;;;;;;;;;;;;;5008267;28;20030;-85
2023/12/24 04:46:07;;;;;;;38.22;17.83;;;;;;;;;;5006286;28;19905;-86
2023/12/24 04:48:32;;;;;;;22.35;13.35;;;;;;;;;;5023791;28;20060;-86
2023/12/24 04:50:58;;;;;;;19.77;11.60;;;;;;;;;;5027119;28;20080;-85
2023/12/24 04:53:23;;;;;;;17.02;10.95;;;;;;;;;;5026937;28;20022;-86
2023/12/24 04:55:48;;;;;;;13.32;8.52;;;;;;;;;;5009525;28;20169;-86
2023/12/24 04:58:13;;;;;;;15.75;9.75;;;;;;;;;;5025538;28;20021;-86
2023/12/24 05:00:39;;;;;;;12.95;7.45;;;;;;;;;;5027294;28;20026;-86
2023/12/24 05:03:04;;;;;;;12.75;9.07;;;;;;;;;;5018376;28;20074;-86
2023/12/24 05:05:30;;;;;;;20.25;12.07;;;;;;;;;;5009482;28;20018;-85
2023/12/24 05:07:55;;;;;;;54.67;27.23;;;;;;;;;;5027064;28;20029;-86
2023/12/24 05:10:20;;;;;;;56.20;27.67;;;;;;;;;;5008949;28;20488;-85
2023/12/24 05:12:46;;;;;;;28.48;16.05;;;;;;;;;;5014562;28;20010;-86
2023/12/24 05:15:12;;;;;;;29.45;16.58;;;;;;;;;;5027016;28;20087;-85
2023/12/24 05:17:37;;;;;;;56.92;27.75;;;;;;;;;;5022840;28;20353;-86
2023/12/24 05:20:03;;;;;;;59.55;29.10;;;;;;;;;;5008967;28;20438;-86
2023/12/24 05:22:28;;;;;;;88.50;39.20;;;;;;;;;;5027263;28;20022;-86
2023/12/24 05:24:53;;;;;;;74.03;33.85;;;;;;;;;;5027489;28;20420;-86
2023/12/24 05:27:19;;;;;;;106.28;41.45;;;;;;;;;;5027252;28;20024;-85
2023/12/24 05:29:44;;;;;;;76.30;39.28;;;;;;;;;;5026869;28;20430;-86
2023/12/24 05:32:09;;;;;;;36.58;20.67;;;;;;;;;;5026722;28;20017;-86
2023/12/24 05:34:34;;;;;;;63.38;31.20;;;;;;;;;;5026829;28;20098;-86
2023/12/24 05:37:00;;;;;;;76.85;48.08;;;;;;;;;;5008829;28;20083;-86
2023/12/24 05:39:26;;;;;;;104.43;65.63;;;;;;;;;;5026933;28;20039;-86
2023/12/24 05:41:51;;;;;;;76.85;49.67;;;;;;;;;;5009016;28;20044;-86
2023/12/24 05:44:17;;;;;;;79.22;48.53;;;;;;;;;;5022762;28;20112;-85
2023/12/24 05:46:42;;;;;;;89.82;49.60;;;;;;;;;;5010120;28;20045;-85
2023/12/24 05:49:08;;;;;;;51.65;29.55;;;;;;;;;;5009166;28;20022;-86
2023/12/24 05:51:33;;;;;;;350.08;127.25;;;;;;;;;;4993194;28;20022;-85
2023/12/24 05:53:59;;;;;;;103.05;46.08;;;;;;;;;;5011053;28;20282;-85
2023/12/24 05:56:24;;;;;;;146.90;74.97;;;;;;;;;;5010782;28;20026;-86
2023/12/24 05:58:50;;;;;;;52.53;29.23;;;;;;;;;;5023405;28;20032;-86
2023/12/24 06:01:15;;;;;;;329.83;181.77;;;;;;;;;;5012647;28;20112;-86
2023/12/24 06:03:41;;;;;;;145.15;73.82;;;;;;;;;;5012401;28;20026;-85
2023/12/24 06:06:06;;;;;;;177.07;84.50;;;;;;;;;;5012578;28;20017;-86
2023/12/24 06:08:32;;;;;;;85.60;53.28;;;;;;;;;;5009059;28;20029;-86
2023/12/24 06:10:57;;;;;;;84.80;47.78;;;;;;;;;;5029865;28;20024;-86
2023/12/24 06:13:22;;;;;;;66.07;41.83;;;;;;;;;;5030062;28;20075;-85
2023/12/24 06:15:48;;;;;;;59.05;39.42;;;;;;;;;;5030215;28;20044;-85
2023/12/24 06:18:13;;;;;;;42.05;25.90;;;;;;;;;;5014181;28;20036;-86
2023/12/24 06:20:39;;;;;;;474.52;246.63;;;;;;;;;;5028625;28;20471;-85
2023/12/24 06:23:04;;;;;;;136.88;87.40;;;;;;;;;;5012118;28;20013;-86
2023/12/24 06:25:29;;;;;;;92.60;58.08;;;;;;;;;;5012213;28;20024;-85
2023/12/24 06:27:55;;;;;;;89.90;48.25;;;;;;;;;;5011796;28;20022;-86
2023/12/24 06:30:21;;;;;;;71.30;37.47;;;;;;;;;;5024258;28;20030;-86
2023/12/24 06:32:46;;;;;;;131.23;70.78;;;;;;;;;;5029076;28;20022;-85
2023/12/24 06:35:12;;;;;;;118.00;66.00;;;;;;;;;;5024872;28;20018;-86
2023/12/24 06:37:38;;;;;;;358.20;149.50;;;;;;;;;;5028660;28;20075;-86
2023/12/24 06:40:03;;;;;;;207.52;124.93;;;;;;;;;;5016826;28;20025;-86
2023/12/24 06:42:29;;;;;;;94.68;55.85;;;;;;;;;;5029884;28;20033;-85
2023/12/24 06:44:54;;;;;;;103.43;62.28;;;;;;;;;;5000764;28;20108;-86
2023/12/24 06:47:19;;;;;;;123.55;77.53;;;;;;;;;;5006961;28;20030;-85
2023/12/24 06:49:44;;;;;;;102.80;62.05;;;;;;;;;;4997096;28;20473;-86
2023/12/24 06:52:13;;;;;;;134.25;82.22;;;;;;;;;;4987342;28;20027;-86
2023/12/24 06:54:38;;;;;;;393.65;154.95;;;;;;;;;;4994087;28;20026;-86
2023/12/24 06:57:06;;;;;;;92.47;46.28;;;;;;;;;;5007094;28;20180;-86
2023/12/24 06:59:32;;;;;;;73.55;43.50;;;;;;;;;;5002162;28;20030;-86
2023/12/24 07:01:57;;;;;;;107.30;65.72;;;;;;;;;;4987536;28;20142;-85
2023/12/24 07:04:22;;;;;;;287.60;136.90;;;;;;;;;;4988727;28;20030;-85
2023/12/24 07:06:48;;;;;;;772.55;385.58;;;;;;;;;;4990378;28;20388;-85
2023/12/24 07:09:13;;;;;;;444.77;238.75;;;;;;;;;;5003675;28;20096;-85
2023/12/24 07:11:38;;;;;;;228.40;130.95;;;;;;;;;;5004732;28;20400;-85
2023/12/24 07:14:04;;;;;;;305.48;164.35;;;;;;;;;;5006870;28;20034;-86
2023/12/24 07:16:29;;;;;;;258.10;164.35;;;;;;;;;;5002417;28;20034;-85
2023/12/24 07:18:54;;;;;;;204.35;131.70;;;;;;;;;;5011418;28;20033;-87
2023/12/24 07:21:20;;;;;;;189.73;123.93;;;;;;;;;;5021184;28;20029;-87
2023/12/24 07:23:45;;;;;;;176.00;105.60;;;;;;;;;;5028788;28;20434;-87
2023/12/24 07:26:10;;;;;;;344.23;184.05;;;;;;;;;;5007946;28;20455;-87
2023/12/24 07:28:36;;;;;;;279.48;153.90;;;;;;;;;;5009088;28;20041;-87
2023/12/24 07:31:01;;;;;;;278.42;157.60;;;;;;;;;;5019089;28;20115;-87
2023/12/24 07:33:27;;;;;;;209.55;125.93;;;;;;;;;;5009616;28;20029;-87
2023/12/24 07:35:52;;;;;;;207.85;127.50;;;;;;;;;;5028776;28;20156;-87
2023/12/24 07:38:17;;;;;;;192.80;121.05;;;;;;;;;;5010518;28;20013;-87
2023/12/24 07:40:43;;;;;;;398.08;233.30;;;;;;;;;;5029250;28;20224;-87
2023/12/24 07:43:08;;;;;;;181.88;114.25;;;;;;;;;;5010607;28;20593;-87
2023/12/24 07:45:34;;;;;;;345.58;216.43;;;;;;;;;;5028768;28;20513;-87
2023/12/24 07:47:59;;;;;;;205.77;133.07;;;;;;;;;;5010706;28;20025;-87
2023/12/24 07:50:24;;;;;;;210.05;134.57;;;;;;;;;;5028555;28;20025;-87
2023/12/24 07:52:50;;;;;;;182.93;113.13;;;;;;;;;;5028317;28;20060;-87
2023/12/24 07:55:15;;;;;;;172.25;108.80;;;;;;;;;;5010228;28;20021;-87
2023/12/24 07:57:40;;;;;;;179.95;112.18;;;;;;;;;;5028557;28;20022;-87
2023/12/24 08:00:09;;;;;;;161.02;102.03;;;;;;;;;;5027623;28;20499;-88
2023/12/24 08:02:34;;;;;;;173.20;105.10;;;;;;;;;;5029703;28;20029;-87
2023/12/24 08:05:00;;;;;;;205.85;114.10;;;;;;;;;;5010419;28;20031;-88
2023/12/24 08:07:25;;;;;;;423.98;210.00;;;;;;;;;;5028496;28;20068;-87
2023/12/24 08:09:51;;;;;;;361.48;181.68;;;;;;;;;;5027154;28;20026;-85
2023/12/24 08:12:16;;;;;;;287.73;146.98;;;;;;;;;;5009207;28;20160;-87
2023/12/24 08:14:41;;;;;;;222.50;126.78;;;;;;;;;;5004712;28;20036;-84
2023/12/24 08:17:07;;;;;;;95.90;61.78;;;;;;;;;;5016097;28;20150;-85
2023/12/24 08:19:33;;;;;;;170.20;101.10;;;;;;;;;;5007031;28;20021;-85
2023/12/24 08:21:58;;;;;;;229.85;123.03;;;;;;;;;;5003972;28;20030;-85
2023/12/24 08:24:24;;;;;;;231.68;118.72;;;;;;;;;;5010632;28;20534;-84
2023/12/24 08:26:49;;;;;;;226.30;128.52;;;;;;;;;;5004392;28;20487;-84
2023/12/24 08:29:14;;;;;;;169.65;94.68;;;;;;;;;;5007167;28;20026;-84
2023/12/24 08:31:40;;;;;;;146.23;91.30;;;;;;;;;;5006867;28;20029;-84
2023/12/24 08:34:06;;;;;;;169.32;98.75;;;;;;;;;;5025429;28;20021;-85
2023/12/24 08:36:33;;;;;;;91.82;58.35;;;;;;;;;;5008991;28;20502;-85
2023/12/24 08:38:58;;;;;;;52.45;35.33;;;;;;;;;;5026445;28;20048;-84
2023/12/24 08:41:23;;;;;;;87.60;58.47;;;;;;;;;;5025844;28;20025;-84
2023/12/24 08:43:48;;;;;;;111.07;75.60;;;;;;;;;;5024883;28;20388;-84
2023/12/24 08:46:14;;;;;;;113.75;75.57;;;;;;;;;;5008785;28;20120;-85
2023/12/24 08:48:39;;;;;;;114.88;76.90;;;;;;;;;;5009471;28;20029;-85
2023/12/24 08:51:04;;;;;;;87.55;56.65;;;;;;;;;;5008837;28;20422;-85
2023/12/24 08:53:31;;;;;;;112.25;57.25;;;;;;;;;;5027244;28;20193;-85
2023/12/24 08:55:56;;;;;;;107.63;53.72;;;;;;;;;;5010238;28;20057;-85
2023/12/24 08:58:23;;;;;;;57.55;34.55;;;;;;;;;;5024741;28;20119;-85
2023/12/24 09:00:48;;;;;;;27.88;19.83;;;;;;;;;;5009352;28;20080;-86
2023/12/24 09:03:15;;;;;;;46.42;23.85;;;;;;;;;;5006500;28;20476;-85
2023/12/24 09:05:41;;;;;;;31.65;16.85;;;;;;;;;;5007325;28;20014;-87
2023/12/24 09:08:06;;;;;;;37.35;24.30;;;;;;;;;;5003102;28;20491;-87
2023/12/24 09:10:31;;;;;;;36.20;22.83;;;;;;;;;;5008666;28;20028;-87
2023/12/24 09:12:56;;;;;;;44.05;29.08;;;;;;;;;;5019218;28;20026;-87
2023/12/24 09:15:22;;;;;;;45.65;30.35;;;;;;;;;;5008770;28;20289;-87
2023/12/24 09:17:47;;;;;;;35.55;23.67;;;;;;;;;;5008310;28;20021;-87
2023/12/24 09:20:12;;;;;;;45.60;32.08;;;;;;;;;;5008250;28;20056;-87
2023/12/24 09:22:38;;;;;;;44.90;34.65;;;;;;;;;;5013301;28;20123;-87
2023/12/24 09:25:04;;;;;;;40.88;30.23;;;;;;;;;;5013363;28;20014;-87
2023/12/24 09:27:29;;;;;;;23.85;16.88;;;;;;;;;;5029128;28;20028;-87
2023/12/24 09:29:55;;;;;;;43.38;32.60;;;;;;;;;;5012627;28;20479;-87
2023/12/24 09:32:20;;;;;;;28.77;20.33;;;;;;;;;;5013283;28;20052;-87
2023/12/24 09:34:45;;;;;;;20.75;14.85;;;;;;;;;;5013242;28;20296;-87
2023/12/24 09:37:11;;;;;;;22.13;15.43;;;;;;;;;;5031472;28;20041;-86
2023/12/24 09:39:36;;;;;;;24.55;16.67;;;;;;;;;;5026258;28;20057;-87
2023/12/24 09:42:02;;;;;;;40.03;25.80;;;;;;;;;;5012622;28;20018;-87
2023/12/24 09:44:27;;;;;;;32.25;22.02;;;;;;;;;;5030902;28;20040;-85
2023/12/24 09:46:52;;;;;;;25.38;20.17;;;;;;;;;;5013233;28;20395;-85
2023/12/24 09:49:18;;;;;;;15.73;11.55;;;;;;;;;;5018677;28;20036;-85
2023/12/24 09:51:43;;;;;;;23.63;19.63;;;;;;;;;;5012531;28;20136;-85
2023/12/24 09:54:09;;;;;;;21.83;17.65;;;;;;;;;;5012858;28;20031;-85
2023/12/24 09:56:34;;;;;;;26.70;16.33;;;;;;;;;;5012923;28;20116;-86
2023/12/24 09:59:00;;;;;;;15.10;11.23;;;;;;;;;;5012569;28;20104;-88
2023/12/24 10:01:25;;;;;;;20.67;15.57;;;;;;;;;;5011628;28;20140;-88
2023/12/24 10:03:50;;;;;;;24.30;17.05;;;;;;;;;;5013077;28;20018;-88
2023/12/24 10:06:16;;;;;;;98.05;73.88;;;;;;;;;;5013630;28;20025;-87
2023/12/24 10:08:41;;;;;;;49.63;33.78;;;;;;;;;;5012660;28;20025;-87
2023/12/24 10:11:20;;;;;;;31.40;18.70;;;;;;;;;;5028458;28;20032;-87
2023/12/24 10:13:47;;;;;;;82.18;57.08;;;;;;;;;;5030203;28;20025;-85
2023/12/24 10:16:12;;;;;;;58.65;40.33;;;;;;;;;;5009246;28;20028;-85
2023/12/24 10:18:46;;;;;;;66.63;42.53;;;;;;;;;;5008720;28;20018;-85
2023/12/24 10:21:12;;;;;;;138.40;87.60;;;;;;;;;;5028733;28;20048;-87
2023/12/24 10:23:37;;;;;;;124.38;79.00;;;;;;;;;;4995899;28;20053;-87
2023/12/24 10:26:03;;;;;;;114.38;73.57;;;;;;;;;;5025113;28;20427;-87
2023/12/24 10:28:29;;;;;;;62.83;42.17;;;;;;;;;;5028315;28;20045;-87
2023/12/24 10:31:07;;;;;;;67.90;40.55;;;;;;;;;;5016415;28;20518;-87
2023/12/24 10:33:33;;;;;;;65.85;40.65;;;;;;;;;;5004882;28;20075;-87
2023/12/24 10:35:59;;;;;;;173.43;100.10;;;;;;;;;;5011390;28;20045;-87
2023/12/24 10:38:26;;;;;;;60.85;40.03;;;;;;;;;;5028427;28;20487;-87
2023/12/24 10:40:51;;;;;;;178.85;121.03;;;;;;;;;;5029463;28;20022;-87
2023/12/24 10:43:16;;;;;;;173.07;126.47;;;;;;;;;;5012097;28;20526;-86
2023/12/24 10:45:42;;;;;;;77.05;53.83;;;;;;;;;;5029687;28;20032;-87
2023/12/24 10:48:07;;;;;;;42.30;29.38;;;;;;;;;;5029587;28;20504;-87
2023/12/24 10:50:33;;;;;;;89.03;66.63;;;;;;;;;;5029181;28;20395;-87
2023/12/24 10:52:58;;;;;;;65.30;44.85;;;;;;;;;;5011827;28;20459;-87
2023/12/24 10:55:24;;;;;;;47.88;33.65;;;;;;;;;;5013889;28;20025;-86
2023/12/24 10:58:01;;;;;;;45.50;30.13;;;;;;;;;;5028274;28;20496;-86
2023/12/24 11:00:26;;;;;;;38.35;24.95;;;;;;;;;;5011053;28;20030;-87
2023/12/24 11:02:52;;;;;;;65.97;44.13;;;;;;;;;;5011719;28;20468;-86
2023/12/24 11:05:42;;;;;;;67.45;44.40;;;;;;;;;;5010846;28;20025;-86
2023/12/24 11:08:30;;;;;;;57.70;39.28;;;;;;;;;;5001793;28;20495;-86
2023/12/24 11:11:03;;;;;;;110.78;65.30;;;;;;;;;;5000612;28;20406;-87
2023/12/24 11:13:31;;;;;;;71.60;38.35;;;;;;;;;;5029336;28;20031;-87
2023/12/24 11:16:06;;;;;;;84.60;51.78;;;;;;;;;;5010749;28;20044;-86
2023/12/24 11:18:45;;;;;;;80.95;48.88;;;;;;;;;;5011420;28;20037;-85
2023/12/24 11:21:11;;;;;;;40.40;26.95;;;;;;;;;;5028758;28;20017;-85
2023/12/24 11:23:37;;;;;;;40.30;27.10;;;;;;;;;;5011179;28;20472;-85
2023/12/24 11:26:23;;;;;;;32.85;24.63;;;;;;;;;;5028717;28;20029;-86
2023/12/24 11:28:48;;;;;;;28.25;20.20;;;;;;;;;;5010982;28;20021;-85
2023/12/24 11:31:22;;;;;;;32.00;25.33;;;;;;;;;;5028841;28;20624;-86
2023/12/24 11:33:47;;;;;;;52.17;33.33;;;;;;;;;;5011281;28;20075;-86
2023/12/24 11:36:13;;;;;;;16.58;13.10;;;;;;;;;;5028764;28;20503;-86
2023/12/24 11:38:42;;;;;;;114.35;69.38;;;;;;;;;;5011230;28;20124;-86
2023/12/24 11:41:14;;;;;;;22.77;17.77;;;;;;;;;;5011094;28;20147;-86
2023/12/24 11:43:41;;;;;;;29.80;22.27;;;;;;;;;;5025489;28;20115;-85
2023/12/24 11:46:07;;;;;;;88.25;46.85;;;;;;;;;;5026884;28;20021;-86
2023/12/24 11:48:34;;;;;;;206.10;116.30;;;;;;;;;;5028924;28;20018;-85
2023/12/24 11:51:00;;;;;;;290.60;45.67;;;;;;;;;;5028335;28;20033;-86
2023/12/24 11:53:25;;;;;;;25.65;20.00;;;;;;;;;;5023205;28;20021;-85
2023/12/24 11:56:03;;;;;;;24.13;14.60;;;;;;;;;;5028351;28;20091;-85
2023/12/24 11:58:28;;;;;;;56.92;33.97;;;;;;;;;;5016455;28;20022;-85
2023/12/24 12:00:54;;;;;;;174.77;85.22;;;;;;;;;;5010232;28;20045;-85
2023/12/24 12:03:19;;;;;;;61.50;38.13;;;;;;;;;;5019890;28;20025;-86
2023/12/24 12:05:44;;;;;;;35.83;18.30;;;;;;;;;;5015903;28;20025;-85
2023/12/24 12:08:10;;;;;;;65.93;31.38;;;;;;;;;;5017245;28;20021;-86
2023/12/24 12:10:38;;;;;;;75.22;36.70;;;;;;;;;;5027561;28;20477;-85
2023/12/24 12:13:04;;;;;;;58.20;31.90;;;;;;;;;;5021578;28;20027;-85
2023/12/24 12:15:29;;;;;;;33.55;21.75;;;;;;;;;;5008430;28;20033;-85
2023/12/24 12:17:54;;;;;;;40.50;24.83;;;;;;;;;;5007868;28;20048;-85
2023/12/24 12:20:19;;;;;;;37.33;23.75;;;;;;;;;;5007334;28;20092;-85
2023/12/24 12:22:47;;;;;;;12.20;8.25;;;;;;;;;;5024933;28;20068;-84
2023/12/24 12:25:12;;;;;;;27.75;16.67;;;;;;;;;;5008161;28;20450;-85
2023/12/24 12:27:38;;;;;;;31.20;18.55;;;;;;;;;;5007879;28;20021;-85
2023/12/24 12:30:04;;;;;;;19.60;11.75;;;;;;;;;;5005411;28;20025;-89
2023/12/24 12:32:30;;;;;;;17.27;11.20;;;;;;;;;;5006069;28;20049;-86
2023/12/24 12:34:55;;;;;;;12.20;6.53;;;;;;;;;;5024897;28;20522;-86
2023/12/24 12:37:21;;;;;;;8.80;4.80;;;;;;;;;;5006491;28;20088;-85
2023/12/24 12:39:46;;;;;;;13.07;8.20;;;;;;;;;;4990976;28;20042;-85
2023/12/24 12:42:11;;;;;;;13.52;8.90;;;;;;;;;;5006250;28;20021;-86
2023/12/24 12:44:37;;;;;;;111.80;61.17;;;;;;;;;;5007198;28;20032;-87
2023/12/24 12:47:02;;;;;;;22.02;16.15;;;;;;;;;;5007376;28;20025;-85
2023/12/24 12:49:27;;;;;;;59.72;34.83;;;;;;;;;;5024464;28;20561;-87
2023/12/24 12:51:53;;;;;;;14.75;10.38;;;;;;;;;;5006898;28;20080;-85
2023/12/24 12:54:21;;;;;;;19.15;11.85;;;;;;;;;;5019776;28;20075;-86
2023/12/24 12:56:48;;;;;;;24.87;17.77;;;;;;;;;;5006695;28;20031;-86
2023/12/24 12:59:24;;;;;;;21.75;13.15;;;;;;;;;;5025381;28;20543;-86
2023/12/24 13:01:49;;;;;;;17.00;11.50;;;;;;;;;;5006566;28;20029;-86
2023/12/24 13:04:24;;;;;;;22.65;15.93;;;;;;;;;;5025150;28;20029;-87
2023/12/24 13:06:53;;;;;;;11.93;7.65;;;;;;;;;;5007273;28;20509;-86
2023/12/24 13:09:21;;;;;;;11.48;7.28;;;;;;;;;;5007267;28;20542;-86
2023/12/24 13:11:50;;;;;;;15.63;10.23;;;;;;;;;;5006819;28;20491;-85
2023/12/24 13:14:17;;;;;;;17.27;11.93;;;;;;;;;;5004652;28;20038;-85
2023/12/24 13:16:43;;;;;;;11.70;6.57;;;;;;;;;;5024585;28;20017;-86
2023/12/24 13:19:20;;;;;;;17.38;12.90;;;;;;;;;;5018690;28;20105;-86
2023/12/24 13:21:46;;;;;;;21.40;14.40;;;;;;;;;;5006863;28;20124;-87
2023/12/24 13:24:12;;;;;;;31.98;16.65;;;;;;;;;;5007006;28;20027;-87
2023/12/24 13:26:38;;;;;;;36.05;29.05;;;;;;;;;;5006368;28;20033;-86
2023/12/24 13:29:05;;;;;;;25.42;19.42;;;;;;;;;;5022185;28;20538;-86
2023/12/24 13:31:30;;;;;;;20.33;14.73;;;;;;;;;;5023287;28;20035;-86
2023/12/24 13:33:56;;;;;;;38.50;27.48;;;;;;;;;;5005560;28;20025;-87
2023/12/24 13:36:22;;;;;;;37.42;23.83;;;;;;;;;;4989209;28;20069;-86
2023/12/24 13:38:48;;;;;;;23.73;13.65;;;;;;;;;;5007612;28;20053;-86
2023/12/24 13:41:13;;;;;;;14.02;8.20;;;;;;;;;;5006031;28;20068;-86
2023/12/24 13:43:39;;;;;;;31.80;21.23;;;;;;;;;;5022094;28;20118;-87
2023/12/24 13:46:06;;;;;;;82.68;45.75;;;;;;;;;;5023185;28;20029;-86
2023/12/24 13:48:31;;;;;;;31.35;20.55;;;;;;;;;;5005993;28;20079;-86
2023/12/24 13:50:57;;;;;;;31.88;21.05;;;;;;;;;;5023949;28;20060;-86
2023/12/24 13:53:23;;;;;;;18.55;11.68;;;;;;;;;;5020411;28;20104;-86
2023/12/24 13:55:48;;;;;;;74.63;51.45;;;;;;;;;;5006649;28;20284;-86
2023/12/24 13:58:14;;;;;;;25.50;13.95;;;;;;;;;;5003635;28;20029;-86
2023/12/24 14:00:39;;;;;;;19.25;9.95;;;;;;;;;;5023304;28;20094;-87
2023/12/24 14:03:05;;;;;;;19.48;10.05;;;;;;;;;;5022887;28;20037;-87
2023/12/24 14:05:31;;;;;;;30.58;14.88;;;;;;;;;;5005920;28;20034;-86